sensor_id;sensor_type;location;lat;lon;timestamp;P1;durP1;ratioP1;P2;durP2;ratioP2
33824;SDS011;20127;48.962;8.342;2022-11-15T00:03:40;14.82;;;4.60;;
33824;SDS011;20127;48.962;8.342;2022-11-15T00:06:43;11.50;;;5.00;;
33824;SDS011;20127;48.962;8.342;2022-11-15T00:09:53;16.85;;;5.75;;
33824;SDS011;20127;48.962;8.342;2022-11-15T00:12:56;12.77;;;6.22;;
33824;SDS011;20127;48.962;8.342;2022-11-15T00:16:02;15.43;;;5.70;;
33824;SDS011;20127;48.962;8.342;2022-11-15T00:19:09;9.18;;;4.70;;
33824;SDS011;20127;48.962;8.342;2022-11-15T00:22:14;11.32;;;6.30;;
33824;SDS011;20127;48.962;8.342;2022-11-15T00:25:38;10.48;;;5.93;;
33824;SDS011;20127;48.962;8.342;2022-11-15T00:28:43;8.23;;;4.40;;
33824;SDS011;20127;48.962;8.342;2022-11-15T00:31:50;15.77;;;5.55;;
33824;SDS011;20127;48.962;8.342;2022-11-15T00:34:55;11.38;;;4.80;;
33824;SDS011;20127;48.962;8.342;2022-11-15T00:38:01;18.90;;;5.93;;
33824;SDS011;20127;48.962;8.342;2022-11-15T00:41:04;9.80;;;5.75;;
33824;SDS011;20127;48.962;8.342;2022-11-15T00:44:07;11.82;;;5.90;;
33824;SDS011;20127;48.962;8.342;2022-11-15T00:47:15;12.20;;;5.90;;
33824;SDS011;20127;48.962;8.342;2022-11-15T00:50:18;10.63;;;5.38;;
33824;SDS011;20127;48.962;8.342;2022-11-15T00:53:21;9.75;;;5.22;;
33824;SDS011;20127;48.962;8.342;2022-11-15T00:56:31;11.32;;;5.28;;
33824;SDS011;20127;48.962;8.342;2022-11-15T00:59:50;9.73;;;4.90;;
33824;SDS011;20127;48.962;8.342;2022-11-15T01:02:54;12.70;;;5.38;;
33824;SDS011;20127;48.962;8.342;2022-11-15T01:05:58;11.30;;;5.28;;
33824;SDS011;20127;48.962;8.342;2022-11-15T01:09:00;12.57;;;5.18;;
33824;SDS011;20127;48.962;8.342;2022-11-15T01:12:03;10.85;;;5.45;;
33824;SDS011;20127;48.962;8.342;2022-11-15T01:15:17;9.65;;;5.30;;
33824;SDS011;20127;48.962;8.342;2022-11-15T01:18:29;12.02;;;6.03;;
33824;SDS011;20127;48.962;8.342;2022-11-15T01:21:37;11.77;;;5.13;;
33824;SDS011;20127;48.962;8.342;2022-11-15T01:24:39;9.82;;;4.90;;
33824;SDS011;20127;48.962;8.342;2022-11-15T01:27:41;11.48;;;5.28;;
33824;SDS011;20127;48.962;8.342;2022-11-15T01:30:48;16.55;;;5.25;;
33824;SDS011;20127;48.962;8.342;2022-11-15T01:33:51;10.50;;;5.30;;
33824;SDS011;20127;48.962;8.342;2022-11-15T01:36:55;10.40;;;6.13;;
33824;SDS011;20127;48.962;8.342;2022-11-15T01:39:57;9.75;;;4.75;;
33824;SDS011;20127;48.962;8.342;2022-11-15T01:42:59;10.88;;;5.18;;
33824;SDS011;20127;48.962;8.342;2022-11-15T01:46:21;6.90;;;4.68;;
33824;SDS011;20127;48.962;8.342;2022-11-15T01:49:32;10.20;;;5.10;;
33824;SDS011;20127;48.962;8.342;2022-11-15T01:52:42;10.00;;;4.90;;
33824;SDS011;20127;48.962;8.342;2022-11-15T01:55:44;7.97;;;4.70;;
33824;SDS011;20127;48.962;8.342;2022-11-15T01:58:50;13.57;;;6.78;;
33824;SDS011;20127;48.962;8.342;2022-11-15T02:01:57;11.88;;;5.60;;
33824;SDS011;20127;48.962;8.342;2022-11-15T02:05:09;8.35;;;3.70;;
33824;SDS011;20127;48.962;8.342;2022-11-15T02:08:29;15.55;;;5.93;;
33824;SDS011;20127;48.962;8.342;2022-11-15T02:11:42;11.35;;;5.47;;
33824;SDS011;20127;48.962;8.342;2022-11-15T02:14:46;6.78;;;4.25;;
33824;SDS011;20127;48.962;8.342;2022-11-15T02:17:58;8.45;;;4.95;;
33824;SDS011;20127;48.962;8.342;2022-11-15T02:21:17;15.00;;;4.80;;
33824;SDS011;20127;48.962;8.342;2022-11-15T02:24:34;10.13;;;4.85;;
33824;SDS011;20127;48.962;8.342;2022-11-15T02:31:30;10.15;;;5.85;;
33824;SDS011;20127;48.962;8.342;2022-11-15T02:35:00;10.73;;;5.45;;
33824;SDS011;20127;48.962;8.342;2022-11-15T02:38:08;8.98;;;4.60;;
33824;SDS011;20127;48.962;8.342;2022-11-15T02:41:20;8.32;;;4.63;;
33824;SDS011;20127;48.962;8.342;2022-11-15T02:47:33;5.43;;;3.80;;
33824;SDS011;20127;48.962;8.342;2022-11-15T02:50:40;17.08;;;6.88;;
33824;SDS011;20127;48.962;8.342;2022-11-15T02:53:43;11.95;;;5.20;;
33824;SDS011;20127;48.962;8.342;2022-11-15T02:56:45;9.65;;;5.20;;
33824;SDS011;20127;48.962;8.342;2022-11-15T03:03:18;13.05;;;5.13;;
33824;SDS011;20127;48.962;8.342;2022-11-15T03:06:34;11.25;;;6.00;;
33824;SDS011;20127;48.962;8.342;2022-11-15T03:09:40;11.47;;;4.83;;
33824;SDS011;20127;48.962;8.342;2022-11-15T03:12:51;11.95;;;4.38;;
33824;SDS011;20127;48.962;8.342;2022-11-15T03:15:59;8.13;;;4.55;;
33824;SDS011;20127;48.962;8.342;2022-11-15T03:19:10;9.70;;;5.45;;
33824;SDS011;20127;48.962;8.342;2022-11-15T03:22:15;7.00;;;4.13;;
33824;SDS011;20127;48.962;8.342;2022-11-15T03:25:21;10.88;;;5.18;;
33824;SDS011;20127;48.962;8.342;2022-11-15T03:28:27;8.15;;;5.05;;
33824;SDS011;20127;48.962;8.342;2022-11-15T03:31:42;17.95;;;6.38;;
33824;SDS011;20127;48.962;8.342;2022-11-15T03:43:29;15.35;;;7.93;;
33824;SDS011;20127;48.962;8.342;2022-11-15T03:51:26;13.85;;;6.07;;
33824;SDS011;20127;48.962;8.342;2022-11-15T03:55:24;13.68;;;7.40;;
33824;SDS011;20127;48.962;8.342;2022-11-15T04:10:59;10.60;;;4.65;;
33824;SDS011;20127;48.962;8.342;2022-11-15T04:14:01;11.30;;;5.40;;
33824;SDS011;20127;48.962;8.342;2022-11-15T04:17:24;11.15;;;5.35;;
33824;SDS011;20127;48.962;8.342;2022-11-15T04:20:27;12.25;;;4.78;;
33824;SDS011;20127;48.962;8.342;2022-11-15T04:23:48;10.52;;;4.68;;
33824;SDS011;20127;48.962;8.342;2022-11-15T04:27:11;7.13;;;4.22;;
33824;SDS011;20127;48.962;8.342;2022-11-15T04:30:27;11.77;;;4.82;;
33824;SDS011;20127;48.962;8.342;2022-11-15T04:33:39;8.88;;;5.57;;
33824;SDS011;20127;48.962;8.342;2022-11-15T04:36:47;8.23;;;4.05;;
33824;SDS011;20127;48.962;8.342;2022-11-15T04:40:14;13.38;;;5.20;;
33824;SDS011;20127;48.962;8.342;2022-11-15T04:43:27;12.25;;;5.38;;
33824;SDS011;20127;48.962;8.342;2022-11-15T04:46:43;12.85;;;5.32;;
33824;SDS011;20127;48.962;8.342;2022-11-15T04:49:46;10.32;;;5.50;;
33824;SDS011;20127;48.962;8.342;2022-11-15T04:52:52;11.63;;;5.18;;
33824;SDS011;20127;48.962;8.342;2022-11-15T04:55:55;9.20;;;5.72;;
33824;SDS011;20127;48.962;8.342;2022-11-15T04:58:57;10.70;;;5.47;;
33824;SDS011;20127;48.962;8.342;2022-11-15T05:01:59;11.63;;;4.68;;
33824;SDS011;20127;48.962;8.342;2022-11-15T05:05:02;9.35;;;5.32;;
33824;SDS011;20127;48.962;8.342;2022-11-15T05:08:03;9.75;;;5.18;;
33824;SDS011;20127;48.962;8.342;2022-11-15T05:11:05;12.23;;;5.32;;
33824;SDS011;20127;48.962;8.342;2022-11-15T05:14:07;11.65;;;5.28;;
33824;SDS011;20127;48.962;8.342;2022-11-15T05:17:09;12.98;;;5.13;;
33824;SDS011;20127;48.962;8.342;2022-11-15T05:20:13;11.57;;;5.60;;
33824;SDS011;20127;48.962;8.342;2022-11-15T05:23:15;13.88;;;5.25;;
33824;SDS011;20127;48.962;8.342;2022-11-15T05:26:17;10.13;;;5.20;;
33824;SDS011;20127;48.962;8.342;2022-11-15T05:29:19;12.00;;;5.28;;
33824;SDS011;20127;48.962;8.342;2022-11-15T05:32:21;11.85;;;5.38;;
33824;SDS011;20127;48.962;8.342;2022-11-15T05:35:26;8.07;;;4.55;;
33824;SDS011;20127;48.962;8.342;2022-11-15T05:38:32;9.55;;;4.53;;
33824;SDS011;20127;48.962;8.342;2022-11-15T05:41:35;10.38;;;4.95;;
33824;SDS011;20127;48.962;8.342;2022-11-15T05:44:41;7.43;;;4.00;;
33824;SDS011;20127;48.962;8.342;2022-11-15T05:47:45;7.88;;;4.88;;
33824;SDS011;20127;48.962;8.342;2022-11-15T05:50:51;14.68;;;5.65;;
33824;SDS011;20127;48.962;8.342;2022-11-15T05:53:54;6.50;;;4.03;;
33824;SDS011;20127;48.962;8.342;2022-11-15T05:56:59;12.43;;;4.90;;
33824;SDS011;20127;48.962;8.342;2022-11-15T06:00:01;11.23;;;6.57;;
33824;SDS011;20127;48.962;8.342;2022-11-15T06:11:04;12.75;;;5.82;;
33824;SDS011;20127;48.962;8.342;2022-11-15T06:17:47;9.77;;;5.10;;
33824;SDS011;20127;48.962;8.342;2022-11-15T06:20:58;14.55;;;5.47;;
33824;SDS011;20127;48.962;8.342;2022-11-15T06:24:42;10.77;;;5.25;;
33824;SDS011;20127;48.962;8.342;2022-11-15T06:56:25;11.80;;;4.88;;
33824;SDS011;20127;48.962;8.342;2022-11-15T06:59:27;12.15;;;5.00;;
33824;SDS011;20127;48.962;8.342;2022-11-15T07:02:35;11.57;;;5.10;;
33824;SDS011;20127;48.962;8.342;2022-11-15T07:05:50;13.27;;;5.53;;
33824;SDS011;20127;48.962;8.342;2022-11-15T07:08:57;9.30;;;5.60;;
33824;SDS011;20127;48.962;8.342;2022-11-15T07:15:09;15.18;;;5.32;;
33824;SDS011;20127;48.962;8.342;2022-11-15T07:18:12;12.48;;;6.00;;
33824;SDS011;20127;48.962;8.342;2022-11-15T07:21:18;13.93;;;5.55;;
33824;SDS011;20127;48.962;8.342;2022-11-15T07:24:24;17.65;;;8.02;;
33824;SDS011;20127;48.962;8.342;2022-11-15T07:27:54;10.93;;;4.38;;
33824;SDS011;20127;48.962;8.342;2022-11-15T07:31:04;8.38;;;5.40;;
33824;SDS011;20127;48.962;8.342;2022-11-15T07:34:21;21.58;;;5.93;;
33824;SDS011;20127;48.962;8.342;2022-11-15T07:37:36;14.35;;;5.35;;
33824;SDS011;20127;48.962;8.342;2022-11-15T07:40:45;9.48;;;4.75;;
33824;SDS011;20127;48.962;8.342;2022-11-15T07:47:43;13.55;;;4.70;;
33824;SDS011;20127;48.962;8.342;2022-11-15T07:51:00;14.02;;;4.93;;
33824;SDS011;20127;48.962;8.342;2022-11-15T07:54:07;8.32;;;4.85;;
33824;SDS011;20127;48.962;8.342;2022-11-15T07:57:14;12.23;;;4.05;;
33824;SDS011;20127;48.962;8.342;2022-11-15T08:00:29;13.93;;;4.63;;
33824;SDS011;20127;48.962;8.342;2022-11-15T08:03:31;10.82;;;4.47;;
33824;SDS011;20127;48.962;8.342;2022-11-15T08:06:35;8.98;;;4.18;;
33824;SDS011;20127;48.962;8.342;2022-11-15T08:09:36;9.55;;;4.53;;
33824;SDS011;20127;48.962;8.342;2022-11-15T08:12:38;8.43;;;3.63;;
33824;SDS011;20127;48.962;8.342;2022-11-15T08:15:40;9.68;;;5.28;;
33824;SDS011;20127;48.962;8.342;2022-11-15T08:18:42;8.00;;;4.95;;
33824;SDS011;20127;48.962;8.342;2022-11-15T08:21:45;8.68;;;5.30;;
33824;SDS011;20127;48.962;8.342;2022-11-15T08:24:47;9.25;;;5.22;;
33824;SDS011;20127;48.962;8.342;2022-11-15T08:27:50;9.77;;;4.80;;
33824;SDS011;20127;48.962;8.342;2022-11-15T08:30:52;10.65;;;5.10;;
33824;SDS011;20127;48.962;8.342;2022-11-15T08:33:54;21.50;;;14.48;;
33824;SDS011;20127;48.962;8.342;2022-11-15T08:36:57;18.17;;;12.35;;
33824;SDS011;20127;48.962;8.342;2022-11-15T08:39:59;13.50;;;5.63;;
33824;SDS011;20127;48.962;8.342;2022-11-15T08:43:01;19.42;;;5.07;;
33824;SDS011;20127;48.962;8.342;2022-11-15T08:46:03;6.50;;;4.57;;
33824;SDS011;20127;48.962;8.342;2022-11-15T08:49:05;12.30;;;4.10;;
33824;SDS011;20127;48.962;8.342;2022-11-15T08:52:08;7.40;;;3.53;;
33824;SDS011;20127;48.962;8.342;2022-11-15T08:55:09;9.30;;;5.57;;
33824;SDS011;20127;48.962;8.342;2022-11-15T08:58:11;9.52;;;3.90;;
33824;SDS011;20127;48.962;8.342;2022-11-15T09:01:14;8.23;;;4.07;;
33824;SDS011;20127;48.962;8.342;2022-11-15T09:04:17;8.48;;;3.97;;
33824;SDS011;20127;48.962;8.342;2022-11-15T09:07:20;9.63;;;3.22;;
33824;SDS011;20127;48.962;8.342;2022-11-15T09:10:22;7.80;;;4.13;;
33824;SDS011;20127;48.962;8.342;2022-11-15T09:13:24;8.15;;;4.97;;
33824;SDS011;20127;48.962;8.342;2022-11-15T09:16:26;9.00;;;4.22;;
33824;SDS011;20127;48.962;8.342;2022-11-15T09:19:28;7.35;;;4.50;;
33824;SDS011;20127;48.962;8.342;2022-11-15T09:22:31;10.23;;;3.67;;
33824;SDS011;20127;48.962;8.342;2022-11-15T09:25:33;11.57;;;4.35;;
33824;SDS011;20127;48.962;8.342;2022-11-15T09:28:35;9.05;;;4.88;;
33824;SDS011;20127;48.962;8.342;2022-11-15T09:31:38;12.05;;;6.13;;
33824;SDS011;20127;48.962;8.342;2022-11-15T09:34:39;10.15;;;5.10;;
33824;SDS011;20127;48.962;8.342;2022-11-15T09:37:42;10.38;;;5.18;;
33824;SDS011;20127;48.962;8.342;2022-11-15T09:40:44;9.23;;;4.50;;
33824;SDS011;20127;48.962;8.342;2022-11-15T09:43:51;4.35;;;2.78;;
33824;SDS011;20127;48.962;8.342;2022-11-15T09:47:01;5.72;;;3.22;;
33824;SDS011;20127;48.962;8.342;2022-11-15T09:50:11;6.75;;;3.53;;
33824;SDS011;20127;48.962;8.342;2022-11-15T09:53:17;7.32;;;2.83;;
33824;SDS011;20127;48.962;8.342;2022-11-15T09:56:26;6.35;;;2.83;;
33824;SDS011;20127;48.962;8.342;2022-11-15T09:59:39;4.47;;;3.00;;
33824;SDS011;20127;48.962;8.342;2022-11-15T10:03:02;3.30;;;1.77;;
33824;SDS011;20127;48.962;8.342;2022-11-15T10:06:13;6.85;;;3.35;;
33824;SDS011;20127;48.962;8.342;2022-11-15T10:09:24;7.82;;;3.38;;
33824;SDS011;20127;48.962;8.342;2022-11-15T10:12:30;4.47;;;2.88;;
33824;SDS011;20127;48.962;8.342;2022-11-15T10:15:32;7.55;;;4.45;;
33824;SDS011;20127;48.962;8.342;2022-11-15T10:18:38;14.82;;;7.05;;
33824;SDS011;20127;48.962;8.342;2022-11-15T10:21:51;8.38;;;4.53;;
33824;SDS011;20127;48.962;8.342;2022-11-15T10:25:17;7.97;;;3.47;;
33824;SDS011;20127;48.962;8.342;2022-11-15T10:28:21;12.00;;;6.10;;
33824;SDS011;20127;48.962;8.342;2022-11-15T10:31:27;10.05;;;4.25;;
33824;SDS011;20127;48.962;8.342;2022-11-15T10:34:35;9.60;;;4.28;;
33824;SDS011;20127;48.962;8.342;2022-11-15T10:37:37;8.68;;;4.45;;
33824;SDS011;20127;48.962;8.342;2022-11-15T10:40:40;7.63;;;4.32;;
33824;SDS011;20127;48.962;8.342;2022-11-15T10:43:43;8.35;;;4.15;;
33824;SDS011;20127;48.962;8.342;2022-11-15T10:46:46;13.80;;;4.10;;
33824;SDS011;20127;48.962;8.342;2022-11-15T10:50:03;9.18;;;4.03;;
33824;SDS011;20127;48.962;8.342;2022-11-15T10:53:11;6.65;;;3.97;;
33824;SDS011;20127;48.962;8.342;2022-11-15T10:56:25;7.35;;;3.65;;
33824;SDS011;20127;48.962;8.342;2022-11-15T10:59:28;7.15;;;3.58;;
33824;SDS011;20127;48.962;8.342;2022-11-15T11:02:33;4.15;;;2.50;;
33824;SDS011;20127;48.962;8.342;2022-11-15T11:05:37;9.57;;;2.80;;
33824;SDS011;20127;48.962;8.342;2022-11-15T11:08:41;7.10;;;2.60;;
33824;SDS011;20127;48.962;8.342;2022-11-15T11:11:56;5.90;;;2.40;;
33824;SDS011;20127;48.962;8.342;2022-11-15T11:14:59;10.32;;;3.75;;
33824;SDS011;20127;48.962;8.342;2022-11-15T11:18:05;3.90;;;2.20;;
33824;SDS011;20127;48.962;8.342;2022-11-15T11:21:17;6.20;;;1.92;;
33824;SDS011;20127;48.962;8.342;2022-11-15T11:24:28;4.30;;;2.38;;
33824;SDS011;20127;48.962;8.342;2022-11-15T11:27:40;7.15;;;2.25;;
33824;SDS011;20127;48.962;8.342;2022-11-15T11:30:54;6.38;;;2.50;;
33824;SDS011;20127;48.962;8.342;2022-11-15T11:34:09;3.63;;;2.03;;
33824;SDS011;20127;48.962;8.342;2022-11-15T11:37:17;6.25;;;2.92;;
33824;SDS011;20127;48.962;8.342;2022-11-15T11:40:29;7.32;;;2.90;;
33824;SDS011;20127;48.962;8.342;2022-11-15T11:43:37;7.20;;;3.42;;
33824;SDS011;20127;48.962;8.342;2022-11-15T11:46:51;6.78;;;2.90;;
33824;SDS011;20127;48.962;8.342;2022-11-15T11:49:57;5.82;;;3.10;;
33824;SDS011;20127;48.962;8.342;2022-11-15T11:53:02;6.32;;;3.03;;
33824;SDS011;20127;48.962;8.342;2022-11-15T11:56:13;7.85;;;3.17;;
33824;SDS011;20127;48.962;8.342;2022-11-15T11:59:28;13.82;;;3.42;;
33824;SDS011;20127;48.962;8.342;2022-11-15T12:02:38;5.75;;;2.63;;
33824;SDS011;20127;48.962;8.342;2022-11-15T12:05:43;5.70;;;2.40;;
33824;SDS011;20127;48.962;8.342;2022-11-15T12:08:48;8.07;;;3.83;;
33824;SDS011;20127;48.962;8.342;2022-11-15T12:11:55;6.07;;;2.45;;
33824;SDS011;20127;48.962;8.342;2022-11-15T12:15:10;6.20;;;2.30;;
33824;SDS011;20127;48.962;8.342;2022-11-15T12:18:15;8.32;;;3.00;;
33824;SDS011;20127;48.962;8.342;2022-11-15T12:21:19;7.95;;;4.13;;
33824;SDS011;20127;48.962;8.342;2022-11-15T12:24:32;6.35;;;3.10;;
33824;SDS011;20127;48.962;8.342;2022-11-15T12:27:40;6.18;;;3.30;;
33824;SDS011;20127;48.962;8.342;2022-11-15T12:30:48;6.50;;;3.13;;
33824;SDS011;20127;48.962;8.342;2022-11-15T12:33:54;4.97;;;3.25;;
33824;SDS011;20127;48.962;8.342;2022-11-15T12:36:57;6.63;;;3.17;;
33824;SDS011;20127;48.962;8.342;2022-11-15T12:40:03;6.63;;;2.05;;
33824;SDS011;20127;48.962;8.342;2022-11-15T12:47:00;5.13;;;2.40;;
33824;SDS011;20127;48.962;8.342;2022-11-15T12:50:04;6.32;;;1.98;;
33824;SDS011;20127;48.962;8.342;2022-11-15T12:53:26;5.72;;;2.25;;
33824;SDS011;20127;48.962;8.342;2022-11-15T12:56:28;4.47;;;1.85;;
33824;SDS011;20127;48.962;8.342;2022-11-15T13:02:51;4.03;;;1.67;;
33824;SDS011;20127;48.962;8.342;2022-11-15T13:06:34;4.57;;;2.03;;
33824;SDS011;20127;48.962;8.342;2022-11-15T13:09:53;3.08;;;1.70;;
33824;SDS011;20127;48.962;8.342;2022-11-15T13:12:59;12.25;;;4.80;;
33824;SDS011;20127;48.962;8.342;2022-11-15T13:16:02;8.27;;;3.72;;
33824;SDS011;20127;48.962;8.342;2022-11-15T13:19:10;3.88;;;2.47;;
33824;SDS011;20127;48.962;8.342;2022-11-15T13:22:12;3.83;;;2.55;;
33824;SDS011;20127;48.962;8.342;2022-11-15T13:25:43;4.78;;;2.35;;
33824;SDS011;20127;48.962;8.342;2022-11-15T13:28:53;6.47;;;2.10;;
33824;SDS011;20127;48.962;8.342;2022-11-15T13:31:55;7.28;;;2.20;;
33824;SDS011;20127;48.962;8.342;2022-11-15T13:34:58;6.43;;;1.90;;
33824;SDS011;20127;48.962;8.342;2022-11-15T13:38:03;4.00;;;2.17;;
33824;SDS011;20127;48.962;8.342;2022-11-15T13:41:14;6.38;;;2.38;;
33824;SDS011;20127;48.962;8.342;2022-11-15T13:44:20;5.28;;;2.35;;
33824;SDS011;20127;48.962;8.342;2022-11-15T13:47:24;4.75;;;1.85;;
33824;SDS011;20127;48.962;8.342;2022-11-15T13:50:31;5.22;;;2.13;;
33824;SDS011;20127;48.962;8.342;2022-11-15T13:53:34;3.72;;;1.83;;
33824;SDS011;20127;48.962;8.342;2022-11-15T13:56:42;4.97;;;2.53;;
33824;SDS011;20127;48.962;8.342;2022-11-15T13:59:46;5.07;;;2.13;;
33824;SDS011;20127;48.962;8.342;2022-11-15T14:02:49;7.82;;;3.00;;
33824;SDS011;20127;48.962;8.342;2022-11-15T14:09:25;3.80;;;1.98;;
33824;SDS011;20127;48.962;8.342;2022-11-15T14:12:33;2.93;;;1.83;;
33824;SDS011;20127;48.962;8.342;2022-11-15T14:15:36;4.13;;;2.08;;
33824;SDS011;20127;48.962;8.342;2022-11-15T14:18:40;4.32;;;2.42;;
33824;SDS011;20127;48.962;8.342;2022-11-15T14:25:14;8.93;;;2.63;;
33824;SDS011;20127;48.962;8.342;2022-11-15T14:28:30;2.85;;;1.52;;
33824;SDS011;20127;48.962;8.342;2022-11-15T14:31:36;3.25;;;1.98;;
33824;SDS011;20127;48.962;8.342;2022-11-15T14:34:40;6.03;;;2.03;;
33824;SDS011;20127;48.962;8.342;2022-11-15T14:37:44;7.43;;;1.95;;
33824;SDS011;20127;48.962;8.342;2022-11-15T14:40:45;2.63;;;1.35;;
33824;SDS011;20127;48.962;8.342;2022-11-15T14:43:47;2.75;;;1.80;;
33824;SDS011;20127;48.962;8.342;2022-11-15T14:46:50;6.70;;;2.05;;
33824;SDS011;20127;48.962;8.342;2022-11-15T14:49:51;2.63;;;1.70;;
33824;SDS011;20127;48.962;8.342;2022-11-15T14:52:54;5.95;;;1.90;;
33824;SDS011;20127;48.962;8.342;2022-11-15T14:55:56;4.43;;;2.20;;
33824;SDS011;20127;48.962;8.342;2022-11-15T14:58:58;8.38;;;3.38;;
33824;SDS011;20127;48.962;8.342;2022-11-15T15:02:00;11.82;;;7.15;;
33824;SDS011;20127;48.962;8.342;2022-11-15T15:05:07;19.10;;;10.60;;
33824;SDS011;20127;48.962;8.342;2022-11-15T15:08:17;36.88;;;17.63;;
33824;SDS011;20127;48.962;8.342;2022-11-15T15:11:20;29.38;;;12.30;;
33824;SDS011;20127;48.962;8.342;2022-11-15T15:14:23;39.67;;;19.15;;
33824;SDS011;20127;48.962;8.342;2022-11-15T15:17:27;16.48;;;9.10;;
33824;SDS011;20127;48.962;8.342;2022-11-15T15:20:28;12.20;;;7.20;;
33824;SDS011;20127;48.962;8.342;2022-11-15T15:23:32;7.05;;;4.35;;
33824;SDS011;20127;48.962;8.342;2022-11-15T15:26:35;12.02;;;4.47;;
33824;SDS011;20127;48.962;8.342;2022-11-15T15:29:38;10.65;;;4.50;;
33824;SDS011;20127;48.962;8.342;2022-11-15T15:32:41;5.88;;;3.28;;
33824;SDS011;20127;48.962;8.342;2022-11-15T15:35:42;14.40;;;3.58;;
33824;SDS011;20127;48.962;8.342;2022-11-15T15:38:46;6.82;;;3.25;;
33824;SDS011;20127;48.962;8.342;2022-11-15T15:41:47;5.60;;;2.92;;
33824;SDS011;20127;48.962;8.342;2022-11-15T15:44:49;5.65;;;3.42;;
33824;SDS011;20127;48.962;8.342;2022-11-15T15:47:51;5.97;;;2.75;;
33824;SDS011;20127;48.962;8.342;2022-11-15T15:50:53;3.95;;;2.10;;
33824;SDS011;20127;48.962;8.342;2022-11-15T15:53:56;6.13;;;2.33;;
33824;SDS011;20127;48.962;8.342;2022-11-15T15:56:58;8.48;;;3.22;;
33824;SDS011;20127;48.962;8.342;2022-11-15T16:00:00;8.55;;;2.65;;
33824;SDS011;20127;48.962;8.342;2022-11-15T16:03:01;5.13;;;2.28;;
33824;SDS011;20127;48.962;8.342;2022-11-15T16:06:03;10.75;;;4.20;;
33824;SDS011;20127;48.962;8.342;2022-11-15T16:09:08;15.05;;;6.95;;
33824;SDS011;20127;48.962;8.342;2022-11-15T16:12:14;8.13;;;4.68;;
33824;SDS011;20127;48.962;8.342;2022-11-15T16:15:16;6.15;;;4.40;;
33824;SDS011;20127;48.962;8.342;2022-11-15T16:18:18;6.13;;;2.72;;
33824;SDS011;20127;48.962;8.342;2022-11-15T16:21:20;7.25;;;3.00;;
33824;SDS011;20127;48.962;8.342;2022-11-15T16:24:23;8.75;;;3.55;;
33824;SDS011;20127;48.962;8.342;2022-11-15T16:27:24;5.97;;;2.63;;
33824;SDS011;20127;48.962;8.342;2022-11-15T16:30:26;15.95;;;2.83;;
33824;SDS011;20127;48.962;8.342;2022-11-15T16:33:28;4.45;;;2.35;;
33824;SDS011;20127;48.962;8.342;2022-11-15T16:36:30;5.28;;;2.13;;
33824;SDS011;20127;48.962;8.342;2022-11-15T16:39:35;4.05;;;1.60;;
33824;SDS011;20127;48.962;8.342;2022-11-15T16:42:36;5.18;;;2.13;;
33824;SDS011;20127;48.962;8.342;2022-11-15T16:45:38;5.63;;;1.88;;
33824;SDS011;20127;48.962;8.342;2022-11-15T16:48:40;9.15;;;2.42;;
33824;SDS011;20127;48.962;8.342;2022-11-15T16:51:41;5.68;;;2.58;;
33824;SDS011;20127;48.962;8.342;2022-11-15T16:54:46;8.55;;;2.50;;
33824;SDS011;20127;48.962;8.342;2022-11-15T16:57:48;5.75;;;2.55;;
33824;SDS011;20127;48.962;8.342;2022-11-15T17:00:51;6.13;;;2.83;;
33824;SDS011;20127;48.962;8.342;2022-11-15T17:03:53;3.85;;;2.13;;
33824;SDS011;20127;48.962;8.342;2022-11-15T17:06:55;5.93;;;1.90;;
33824;SDS011;20127;48.962;8.342;2022-11-15T17:09:58;3.53;;;1.58;;
33824;SDS011;20127;48.962;8.342;2022-11-15T17:13:00;6.03;;;1.92;;
33824;SDS011;20127;48.962;8.342;2022-11-15T17:16:02;11.40;;;2.80;;
33824;SDS011;20127;48.962;8.342;2022-11-15T17:19:05;5.75;;;3.28;;
33824;SDS011;20127;48.962;8.342;2022-11-15T17:22:07;5.35;;;3.17;;
33824;SDS011;20127;48.962;8.342;2022-11-15T17:25:10;12.55;;;3.70;;
33824;SDS011;20127;48.962;8.342;2022-11-15T17:28:12;6.10;;;3.88;;
33824;SDS011;20127;48.962;8.342;2022-11-15T17:31:13;7.22;;;3.33;;
33824;SDS011;20127;48.962;8.342;2022-11-15T17:34:15;7.32;;;3.47;;
33824;SDS011;20127;48.962;8.342;2022-11-15T17:37:17;6.07;;;3.30;;
33824;SDS011;20127;48.962;8.342;2022-11-15T17:40:20;6.65;;;3.92;;
33824;SDS011;20127;48.962;8.342;2022-11-15T17:43:22;13.45;;;3.95;;
33824;SDS011;20127;48.962;8.342;2022-11-15T17:46:24;17.58;;;5.32;;
33824;SDS011;20127;48.962;8.342;2022-11-15T17:49:26;11.30;;;4.43;;
33824;SDS011;20127;48.962;8.342;2022-11-15T17:52:27;9.00;;;3.65;;
33824;SDS011;20127;48.962;8.342;2022-11-15T17:55:30;9.98;;;4.75;;
33824;SDS011;20127;48.962;8.342;2022-11-15T17:58:33;12.25;;;5.60;;
33824;SDS011;20127;48.962;8.342;2022-11-15T18:01:35;19.88;;;6.82;;
33824;SDS011;20127;48.962;8.342;2022-11-15T18:04:38;10.55;;;6.53;;
33824;SDS011;20127;48.962;8.342;2022-11-15T18:07:40;15.10;;;6.35;;
33824;SDS011;20127;48.962;8.342;2022-11-15T18:10:43;9.43;;;4.90;;
33824;SDS011;20127;48.962;8.342;2022-11-15T18:13:45;11.98;;;5.63;;
33824;SDS011;20127;48.962;8.342;2022-11-15T18:16:48;11.38;;;4.95;;
33824;SDS011;20127;48.962;8.342;2022-11-15T18:19:49;8.82;;;5.03;;
33824;SDS011;20127;48.962;8.342;2022-11-15T18:22:51;12.50;;;5.93;;
33824;SDS011;20127;48.962;8.342;2022-11-15T18:25:55;16.13;;;5.68;;
33824;SDS011;20127;48.962;8.342;2022-11-15T18:29:01;9.68;;;5.22;;
33824;SDS011;20127;48.962;8.342;2022-11-15T18:32:04;8.38;;;3.95;;
33824;SDS011;20127;48.962;8.342;2022-11-15T18:35:10;6.18;;;3.90;;
33824;SDS011;20127;48.962;8.342;2022-11-15T18:38:12;9.77;;;3.30;;
33824;SDS011;20127;48.962;8.342;2022-11-15T18:41:16;7.40;;;3.97;;
33824;SDS011;20127;48.962;8.342;2022-11-15T18:44:23;9.35;;;4.40;;
33824;SDS011;20127;48.962;8.342;2022-11-15T18:47:25;8.90;;;4.35;;
33824;SDS011;20127;48.962;8.342;2022-11-15T18:50:28;9.65;;;5.03;;
33824;SDS011;20127;48.962;8.342;2022-11-15T18:53:30;9.27;;;5.78;;
33824;SDS011;20127;48.962;8.342;2022-11-15T18:56:34;12.20;;;5.47;;
33824;SDS011;20127;48.962;8.342;2022-11-15T18:59:36;11.73;;;6.50;;
33824;SDS011;20127;48.962;8.342;2022-11-15T19:02:37;15.80;;;6.43;;
33824;SDS011;20127;48.962;8.342;2022-11-15T19:05:39;10.70;;;5.80;;
33824;SDS011;20127;48.962;8.342;2022-11-15T19:08:41;8.82;;;5.30;;
33824;SDS011;20127;48.962;8.342;2022-11-15T19:11:45;10.18;;;5.55;;
33824;SDS011;20127;48.962;8.342;2022-11-15T19:14:50;15.43;;;6.72;;
33824;SDS011;20127;48.962;8.342;2022-11-15T19:17:51;12.93;;;7.15;;
33824;SDS011;20127;48.962;8.342;2022-11-15T19:20:55;20.33;;;9.40;;
33824;SDS011;20127;48.962;8.342;2022-11-15T19:23:57;13.93;;;8.02;;
33824;SDS011;20127;48.962;8.342;2022-11-15T19:27:01;17.52;;;8.25;;
33824;SDS011;20127;48.962;8.342;2022-11-15T19:30:03;14.73;;;8.05;;
33824;SDS011;20127;48.962;8.342;2022-11-15T19:33:06;12.48;;;7.13;;
33824;SDS011;20127;48.962;8.342;2022-11-15T19:36:09;15.05;;;7.63;;
33824;SDS011;20127;48.962;8.342;2022-11-15T19:39:13;12.98;;;6.93;;
33824;SDS011;20127;48.962;8.342;2022-11-15T19:42:18;10.18;;;5.78;;
33824;SDS011;20127;48.962;8.342;2022-11-15T19:45:20;12.65;;;6.35;;
33824;SDS011;20127;48.962;8.342;2022-11-15T19:48:22;11.38;;;5.13;;
33824;SDS011;20127;48.962;8.342;2022-11-15T19:51:24;10.27;;;3.95;;
33824;SDS011;20127;48.962;8.342;2022-11-15T19:54:28;14.10;;;5.30;;
33824;SDS011;20127;48.962;8.342;2022-11-15T19:57:31;10.38;;;4.07;;
